createdAt,value
2022-07-29T00:00:01.017Z,15.81
2022-07-29T00:02:28.496Z,15.87
2022-07-29T00:04:55.169Z,15.86
2022-07-29T00:07:21.639Z,15.85
2022-07-29T00:09:51.892Z,15.91
2022-07-29T00:12:25.370Z,15.93
2022-07-29T00:14:56.600Z,15.93
2022-07-29T00:17:26.633Z,15.87
2022-07-29T00:19:53.138Z,15.77
2022-07-29T00:22:20.402Z,15.70
2022-07-29T00:24:48.583Z,15.65
2022-07-29T00:27:15.027Z,15.56
2022-07-29T00:29:41.461Z,15.50
2022-07-29T00:32:07.988Z,15.41
2022-07-29T00:34:53.116Z,15.43
2022-07-29T00:37:19.706Z,15.39
2022-07-29T00:39:46.230Z,15.32
2022-07-29T00:42:12.735Z,15.47
2022-07-29T00:44:40.475Z,15.35
2022-07-29T00:47:07.914Z,15.35
2022-07-29T00:49:35.221Z,15.47
2022-07-29T00:52:03.780Z,15.50
2022-07-29T00:54:31.125Z,15.49
2022-07-29T00:56:59.644Z,15.52
2022-07-29T00:59:34.440Z,15.44
2022-07-29T01:02:02.441Z,15.42
2022-07-29T01:04:30.621Z,15.40
2022-07-29T01:06:57.718Z,15.33
2022-07-29T01:09:42.849Z,15.28
2022-07-29T01:12:17.980Z,15.25
2022-07-29T01:14:44.631Z,15.19
2022-07-29T01:17:30.146Z,15.22
2022-07-29T01:20:09.552Z,15.21
2022-07-29T01:22:45.872Z,15.19
2022-07-29T01:25:33.724Z,15.22
2022-07-29T01:28:23.008Z,15.13
2022-07-29T01:30:53.066Z,15.06
2022-07-29T01:33:40.308Z,14.99
2022-07-29T01:36:14.351Z,14.93
2022-07-29T01:38:43.232Z,14.93
2022-07-29T01:41:13.975Z,14.91
2022-07-29T01:43:56.007Z,14.88
2022-07-29T01:46:28.576Z,14.88
2022-07-29T01:48:58.853Z,14.87
2022-07-29T01:51:46.337Z,14.83
2022-07-29T01:54:40.054Z,14.87
2022-07-29T01:57:09.318Z,14.81
2022-07-29T01:59:37.311Z,14.78
2022-07-29T02:02:03.967Z,14.78
2022-07-29T02:04:31.226Z,14.78
2022-07-29T02:07:02.014Z,14.75
2022-07-29T02:09:29.801Z,14.74
2022-07-29T02:11:57.066Z,14.75
2022-07-29T02:14:24.240Z,14.80
2022-07-29T02:16:54.035Z,14.82
2022-07-29T02:19:23.250Z,14.89
2022-07-29T02:21:54.797Z,15.03
2022-07-29T02:24:22.134Z,14.97
2022-07-29T02:26:50.511Z,14.99
2022-07-29T02:29:17.717Z,14.97
2022-07-29T02:31:45.476Z,14.94
2022-07-29T02:34:13.090Z,14.92
2022-07-29T02:36:40.615Z,14.89
2022-07-29T02:39:08.294Z,14.86
2022-07-29T02:41:44.516Z,14.85
2022-07-29T02:44:17.131Z,14.81
2022-07-29T02:46:51.866Z,14.81
2022-07-29T02:49:36.590Z,14.80
2022-07-29T02:52:17.498Z,14.81
2022-07-29T02:54:56.266Z,14.79
2022-07-29T02:57:35.035Z,14.79
2022-07-29T03:00:12.183Z,14.75
2022-07-29T03:02:42.227Z,14.74
2022-07-29T03:05:10.573Z,14.74
2022-07-29T03:07:37.510Z,14.74
2022-07-29T03:10:04.663Z,14.77
2022-07-29T03:12:31.682Z,14.75
2022-07-29T03:14:58.562Z,14.76
2022-07-29T03:17:25.650Z,14.77
2022-07-29T03:19:52.288Z,14.78
2022-07-29T03:22:19.145Z,14.82
2022-07-29T03:24:46.002Z,14.82
2022-07-29T03:27:14.894Z,14.84
2022-07-29T03:29:41.356Z,14.83
2022-07-29T03:32:16.196Z,15.00
2022-07-29T03:34:50.387Z,14.95
2022-07-29T03:37:16.881Z,14.96
2022-07-29T03:39:43.961Z,14.91
2022-07-29T03:42:13.134Z,14.90
2022-07-29T03:44:43.018Z,14.94
2022-07-29T03:47:10.567Z,15.01
2022-07-29T03:49:38.040Z,14.93
2022-07-29T03:52:04.980Z,14.88
2022-07-29T03:54:31.459Z,14.84
2022-07-29T03:57:00.805Z,14.85
2022-07-29T03:59:28.140Z,14.90
2022-07-29T04:01:56.627Z,14.91
2022-07-29T04:04:23.160Z,14.90
2022-07-29T04:06:49.786Z,14.91
2022-07-29T04:09:16.246Z,14.96
2022-07-29T04:12:01.756Z,14.96
2022-07-29T04:14:29.685Z,14.98
2022-07-29T04:16:56.316Z,15.01
2022-07-29T04:19:23.499Z,15.05
2022-07-29T04:21:50.038Z,15.09
2022-07-29T04:24:17.166Z,15.14
2022-07-29T04:26:44.023Z,15.17
2022-07-29T04:29:10.801Z,15.20
2022-07-29T04:31:37.459Z,15.26
2022-07-29T04:34:04.063Z,15.41
2022-07-29T04:36:30.484Z,15.59
2022-07-29T04:38:57.075Z,15.75
2022-07-29T04:41:23.696Z,15.90
2022-07-29T04:44:01.895Z,16.00
2022-07-29T04:46:29.068Z,16.18
2022-07-29T04:48:55.825Z,16.23
2022-07-29T04:51:22.377Z,16.32
2022-07-29T04:53:48.898Z,16.37
2022-07-29T04:56:15.634Z,16.47
2022-07-29T04:58:42.082Z,16.59
2022-07-29T05:01:08.793Z,16.60
2022-07-29T05:03:35.284Z,16.57
2022-07-29T05:06:01.985Z,16.59
2022-07-29T05:08:28.406Z,16.56
2022-07-29T05:10:55.030Z,16.77
2022-07-29T05:13:21.458Z,16.90
2022-07-29T05:15:48.042Z,16.99
2022-07-29T05:18:15.136Z,16.89
2022-07-29T05:20:41.938Z,16.97
2022-07-29T05:23:08.373Z,17.07
2022-07-29T05:25:42.958Z,17.21
2022-07-29T05:28:12.215Z,17.39
2022-07-29T05:30:38.837Z,17.33
2022-07-29T05:33:05.288Z,17.39
2022-07-29T05:35:31.786Z,17.58
2022-07-29T05:37:58.475Z,17.72
2022-07-29T05:40:25.061Z,17.84
2022-07-29T05:42:51.459Z,18.06
2022-07-29T05:45:18.003Z,18.24
2022-07-29T05:47:44.471Z,18.53
2022-07-29T05:50:10.985Z,18.89
2022-07-29T05:52:37.415Z,19.09
2022-07-29T05:55:06.382Z,19.17
2022-07-29T05:57:33.070Z,18.67
2022-07-29T05:59:59.598Z,19.33
2022-07-29T06:02:26.133Z,19.44
2022-07-29T06:04:53.487Z,19.75
2022-07-29T06:07:20.133Z,19.99
2022-07-29T06:09:46.586Z,20.08
2022-07-29T06:12:13.072Z,20.14
2022-07-29T06:14:39.774Z,20.57
2022-07-29T06:17:06.697Z,20.63
2022-07-29T06:19:35.313Z,20.93
2022-07-29T06:22:01.786Z,20.48
2022-07-29T06:24:28.249Z,21.08
2022-07-29T06:26:54.837Z,21.50
2022-07-29T06:29:21.302Z,21.64
2022-07-29T06:31:48.910Z,21.77
2022-07-29T06:34:16.670Z,21.94
2022-07-29T06:36:44.185Z,21.94
2022-07-29T06:39:11.742Z,21.89
2022-07-29T06:41:38.929Z,22.28
2022-07-29T06:44:05.683Z,21.96
2022-07-29T06:46:33.156Z,22.08
2022-07-29T06:49:01.565Z,22.41
2022-07-29T06:51:28.505Z,22.09
2022-07-29T06:54:00.003Z,22.20
2022-07-29T06:56:39.478Z,22.01
2022-07-29T06:59:08.424Z,22.20
2022-07-29T07:01:35.497Z,22.78
2022-07-29T07:04:02.018Z,22.86
2022-07-29T07:06:28.665Z,23.15
2022-07-29T07:08:55.321Z,23.42
2022-07-29T07:11:21.780Z,23.51
2022-07-29T07:13:48.256Z,24.10
2022-07-29T07:16:14.847Z,23.99
2022-07-29T07:18:41.503Z,23.81
2022-07-29T07:21:08.164Z,24.16
2022-07-29T07:23:34.653Z,24.33
2022-07-29T07:26:01.171Z,24.20
2022-07-29T07:28:27.625Z,23.74
2022-07-29T07:30:54.077Z,24.01
2022-07-29T07:33:20.543Z,24.52
2022-07-29T07:35:47.342Z,23.95
2022-07-29T07:38:14.147Z,23.98
2022-07-29T07:40:41.116Z,24.39
2022-07-29T07:43:07.597Z,23.92
2022-07-29T07:45:34.727Z,24.43
2022-07-29T07:48:01.241Z,24.62
2022-07-29T07:50:27.858Z,24.24
2022-07-29T07:52:58.506Z,24.65
2022-07-29T07:55:26.398Z,24.34
2022-07-29T07:57:52.990Z,24.72
2022-07-29T08:00:22.942Z,24.45
2022-07-29T08:02:50.931Z,24.56
2022-07-29T08:05:19.617Z,25.01
2022-07-29T08:07:47.421Z,25.17
2022-07-29T08:10:15.604Z,25.48
2022-07-29T08:12:43.605Z,25.39
2022-07-29T08:15:10.322Z,25.43
2022-07-29T08:17:37.287Z,26.16
2022-07-29T08:20:04.624Z,26.69
2022-07-29T08:22:31.111Z,27.54
2022-07-29T08:24:57.586Z,28.18
2022-07-29T08:27:42.910Z,28.34
2022-07-29T08:30:11.242Z,29.15
2022-07-29T08:32:53.131Z,29.62
2022-07-29T08:35:23.849Z,30.32
2022-07-29T08:37:50.563Z,30.31
2022-07-29T08:40:17.072Z,31.31
2022-07-29T08:42:43.638Z,31.54
2022-07-29T08:45:10.620Z,32.53
2022-07-29T08:47:40.707Z,34.18
2022-07-29T08:50:10.828Z,34.84
2022-07-29T08:52:40.423Z,35.08
2022-07-29T08:55:10.024Z,35.44
2022-07-29T08:57:37.244Z,35.98
2022-07-29T09:00:07.953Z,37.77
2022-07-29T09:02:41.217Z,37.74
2022-07-29T09:05:09.127Z,37.77
2022-07-29T09:07:36.169Z,37.79
2022-07-29T09:10:02.802Z,38.11
2022-07-29T09:12:32.720Z,37.53
2022-07-29T09:15:01.290Z,36.21
2022-07-29T09:17:47.572Z,35.33
2022-07-29T09:20:16.438Z,34.94
2022-07-29T09:22:43.048Z,34.23
2022-07-29T09:25:10.100Z,33.48
2022-07-29T09:27:36.983Z,34.09
2022-07-29T09:30:11.366Z,33.55
2022-07-29T09:32:57.470Z,32.66
2022-07-29T09:35:25.754Z,32.32
2022-07-29T09:37:52.737Z,31.49
2022-07-29T09:40:22.246Z,32.34
2022-07-29T09:42:49.307Z,32.08
2022-07-29T09:45:32.624Z,32.15
2022-07-29T09:48:04.528Z,33.37
2022-07-29T09:50:39.226Z,32.95
2022-07-29T09:53:05.711Z,31.81
2022-07-29T09:55:32.357Z,30.89
2022-07-29T09:58:18.382Z,31.06
2022-07-29T10:00:46.932Z,31.65
2022-07-29T10:03:15.191Z,32.21
2022-07-29T10:05:43.085Z,32.98
2022-07-29T10:08:10.781Z,33.17
2022-07-29T10:10:42.637Z,32.61
2022-07-29T10:13:16.496Z,31.92
2022-07-29T10:15:46.150Z,31.74
2022-07-29T10:18:14.608Z,33.31
2022-07-29T10:20:42.688Z,34.24
2022-07-29T10:23:10.181Z,36.22
2022-07-29T10:25:36.687Z,36.18
2022-07-29T10:28:03.777Z,34.13
2022-07-29T10:30:30.667Z,33.75
2022-07-29T10:33:10.696Z,34.95
2022-07-29T10:36:15.552Z,36.43
2022-07-29T10:38:48.163Z,37.59
2022-07-29T10:41:43.997Z,38.85
2022-07-29T10:44:23.705Z,38.39
2022-07-29T10:46:51.617Z,36.01
2022-07-29T10:49:27.107Z,37.92
2022-07-29T10:52:03.564Z,39.42
2022-07-29T10:54:48.805Z,39.29
2022-07-29T10:57:52.634Z,38.51
2022-07-29T11:00:17.023Z,36.01
2022-07-29T11:02:46.425Z,36.32
2022-07-29T11:05:19.851Z,38.40
2022-07-29T11:08:19.684Z,38.81
2022-07-29T11:10:48.581Z,38.12
2022-07-29T11:13:44.667Z,37.99
2022-07-29T11:16:13.214Z,36.87
2022-07-29T11:19:14.313Z,35.90
2022-07-29T11:21:53.866Z,34.89
2022-07-29T11:24:33.037Z,35.28
2022-07-29T11:27:22.974Z,34.72
2022-07-29T11:29:58.562Z,36.45
2022-07-29T11:32:29.220Z,36.19
2022-07-29T11:35:37.989Z,35.60
2022-07-29T11:38:28.058Z,33.85
2022-07-29T11:41:27.195Z,34.17
2022-07-29T11:43:59.094Z,33.14
2022-07-29T11:46:45.169Z,34.25
2022-07-29T11:49:15.457Z,33.51
2022-07-29T11:51:48.131Z,34.89
2022-07-29T11:54:16.473Z,34.73
2022-07-29T11:56:46.713Z,35.20
2022-07-29T11:59:15.223Z,32.81
2022-07-29T12:02:06.658Z,33.03
2022-07-29T12:04:57.828Z,34.23
2022-07-29T12:07:34.720Z,35.13
2022-07-29T12:10:03.433Z,36.15
2022-07-29T12:12:29.989Z,34.54
2022-07-29T12:14:56.614Z,35.59
2022-07-29T12:17:34.247Z,36.01
2022-07-29T12:20:03.945Z,36.48
2022-07-29T12:22:32.989Z,36.83
2022-07-29T12:25:31.987Z,37.29
2022-07-29T12:28:06.229Z,37.00
2022-07-29T12:30:47.275Z,37.20
2022-07-29T12:33:40.583Z,36.48
2022-07-29T12:36:10.364Z,35.16
2022-07-29T12:38:41.589Z,34.65
2022-07-29T12:41:08.217Z,33.94
2022-07-29T12:43:34.913Z,33.86
2022-07-29T12:46:13.765Z,32.74
2022-07-29T12:48:42.396Z,32.68
2022-07-29T12:51:10.029Z,32.80
2022-07-29T12:53:37.383Z,32.38
2022-07-29T12:56:15.596Z,31.97
2022-07-29T12:58:51.164Z,31.35
2022-07-29T13:01:20.386Z,31.51
2022-07-29T13:03:56.886Z,31.87
2022-07-29T13:06:49.689Z,31.88
2022-07-29T13:09:23.458Z,31.30
2022-07-29T13:11:52.018Z,31.46
2022-07-29T13:14:32.920Z,31.76
2022-07-29T13:17:11.708Z,31.45
2022-07-29T13:19:49.363Z,31.92
2022-07-29T13:22:20.364Z,32.22
2022-07-29T13:24:50.605Z,32.46
2022-07-29T13:27:18.607Z,32.71
2022-07-29T13:29:45.295Z,33.13
2022-07-29T13:32:12.805Z,33.60
2022-07-29T13:34:39.267Z,34.36
2022-07-29T13:37:05.914Z,34.39
2022-07-29T13:39:32.323Z,34.66
2022-07-29T13:41:59.050Z,34.49
2022-07-29T13:44:26.738Z,34.21
2022-07-29T13:46:53.210Z,34.65
2022-07-29T13:49:19.670Z,34.40
2022-07-29T13:51:46.148Z,33.84
2022-07-29T13:54:12.570Z,32.78
2022-07-29T13:56:39.056Z,32.33
2022-07-29T13:59:05.477Z,32.65
2022-07-29T14:01:32.014Z,32.47
2022-07-29T14:03:58.485Z,32.66
2022-07-29T14:06:25.104Z,32.43
2022-07-29T14:08:51.993Z,32.11
2022-07-29T14:11:18.462Z,32.31
2022-07-29T14:13:45.302Z,31.94
2022-07-29T14:16:11.843Z,32.72
2022-07-29T14:18:38.284Z,33.29
2022-07-29T14:21:04.843Z,33.54
2022-07-29T14:23:31.327Z,33.38
2022-07-29T14:25:58.299Z,32.93
2022-07-29T14:28:24.734Z,32.42
2022-07-29T14:30:51.216Z,32.34
2022-07-29T14:33:17.711Z,31.80
2022-07-29T14:35:44.685Z,31.66
2022-07-29T14:38:11.129Z,31.34
2022-07-29T14:40:37.807Z,31.21
2022-07-29T14:43:04.862Z,31.22
2022-07-29T14:45:31.468Z,31.13
2022-07-29T14:47:58.266Z,31.46
2022-07-29T14:50:31.132Z,31.83
2022-07-29T14:52:58.904Z,32.20
2022-07-29T14:55:25.480Z,31.90
2022-07-29T14:57:53.413Z,31.38
2022-07-29T15:00:23.404Z,31.33
2022-07-29T15:03:01.854Z,31.21
2022-07-29T15:05:29.580Z,31.23
2022-07-29T15:07:56.305Z,30.85
2022-07-29T15:10:22.794Z,30.63
2022-07-29T15:12:51.415Z,30.45
2022-07-29T15:15:17.906Z,30.35
2022-07-29T15:17:44.491Z,29.94
2022-07-29T15:20:12.641Z,29.79
2022-07-29T15:22:39.397Z,29.53
2022-07-29T15:25:06.730Z,29.66
2022-07-29T15:27:33.333Z,29.74
2022-07-29T15:29:59.796Z,30.13
2022-07-29T15:32:26.242Z,30.42
2022-07-29T15:34:52.707Z,30.49
2022-07-29T15:37:19.228Z,30.43
2022-07-29T15:39:45.619Z,30.25
2022-07-29T15:42:12.133Z,30.19
2022-07-29T15:44:38.654Z,30.07
2022-07-29T15:47:08.111Z,29.74
2022-07-29T15:49:47.970Z,30.04
2022-07-29T15:52:18.966Z,29.64
2022-07-29T15:54:46.828Z,29.40
2022-07-29T15:57:13.672Z,29.61
2022-07-29T15:59:40.125Z,29.81
2022-07-29T16:02:06.849Z,29.90
2022-07-29T16:04:33.313Z,29.47
2022-07-29T16:07:00.326Z,29.67
2022-07-29T16:09:27.774Z,29.79
2022-07-29T16:11:54.344Z,29.74
2022-07-29T16:14:21.298Z,29.62
2022-07-29T16:16:48.210Z,29.48
2022-07-29T16:19:14.989Z,29.31
2022-07-29T16:21:41.421Z,28.96
2022-07-29T16:24:08.434Z,29.11
2022-07-29T16:26:35.482Z,29.05
2022-07-29T16:29:02.020Z,29.12
2022-07-29T16:31:28.551Z,28.70
2022-07-29T16:33:56.013Z,28.78
2022-07-29T16:36:22.829Z,28.82
2022-07-29T16:38:50.867Z,28.85
2022-07-29T16:41:17.312Z,28.74
2022-07-29T16:43:43.849Z,28.81
2022-07-29T16:46:13.096Z,28.71
2022-07-29T16:48:45.457Z,28.77
2022-07-29T16:51:12.152Z,28.75
2022-07-29T16:53:41.129Z,28.59
2022-07-29T16:56:07.545Z,28.52
2022-07-29T16:58:40.517Z,28.49
2022-07-29T17:01:09.922Z,28.34
2022-07-29T17:03:36.510Z,28.34
2022-07-29T17:06:03.074Z,28.30
2022-07-29T17:08:29.578Z,28.30
2022-07-29T17:10:56.008Z,28.36
2022-07-29T17:13:22.455Z,28.44
2022-07-29T17:15:49.024Z,28.39
2022-07-29T17:18:15.487Z,28.40
2022-07-29T17:20:42.118Z,28.48
2022-07-29T17:23:08.948Z,28.48
2022-07-29T17:25:35.494Z,28.49
2022-07-29T17:28:01.941Z,28.17
2022-07-29T17:30:29.383Z,28.26
2022-07-29T17:32:55.961Z,28.28
2022-07-29T17:35:41.202Z,28.18
2022-07-29T17:38:07.723Z,28.10
2022-07-29T17:40:34.177Z,28.05
2022-07-29T17:43:00.656Z,27.98
2022-07-29T17:45:49.537Z,27.91
2022-07-29T17:48:14.183Z,27.80
2022-07-29T17:50:40.695Z,27.76
2022-07-29T17:53:09.674Z,27.75
2022-07-29T17:55:45.318Z,27.67
2022-07-29T17:58:12.081Z,27.60
2022-07-29T18:00:39.209Z,27.58
2022-07-29T18:03:05.899Z,27.48
2022-07-29T18:05:32.833Z,27.37
2022-07-29T18:07:59.403Z,27.26
2022-07-29T18:10:25.963Z,27.18
2022-07-29T18:12:52.528Z,27.08
2022-07-29T18:15:19.843Z,27.04
2022-07-29T18:17:57.277Z,26.93
2022-07-29T18:20:28.029Z,26.85
2022-07-29T18:22:54.836Z,26.71
2022-07-29T18:25:22.040Z,26.67
2022-07-29T18:27:48.466Z,26.53
2022-07-29T18:30:15.656Z,26.45
2022-07-29T18:32:59.276Z,26.35
2022-07-29T18:35:30.289Z,26.25
2022-07-29T18:38:00.782Z,26.16
2022-07-29T18:40:29.396Z,26.04
2022-07-29T18:42:56.299Z,25.92
2022-07-29T18:45:22.759Z,25.84
2022-07-29T18:47:54.912Z,25.76
2022-07-29T18:50:28.792Z,25.68
2022-07-29T18:52:58.648Z,25.53
2022-07-29T18:55:25.986Z,25.46
2022-07-29T18:57:54.478Z,25.36
2022-07-29T19:00:23.979Z,25.28
2022-07-29T19:02:50.976Z,25.21
2022-07-29T19:05:17.657Z,25.23
2022-07-29T19:07:44.149Z,25.27
2022-07-29T19:10:11.270Z,25.20
2022-07-29T19:12:38.110Z,25.12
2022-07-29T19:15:04.818Z,25.04
2022-07-29T19:17:31.309Z,24.99
2022-07-29T19:19:57.786Z,24.93
2022-07-29T19:22:24.344Z,24.90
2022-07-29T19:24:51.010Z,24.85
2022-07-29T19:27:17.766Z,24.81
2022-07-29T19:29:44.410Z,24.66
2022-07-29T19:32:10.932Z,24.61
2022-07-29T19:34:38.234Z,24.59
2022-07-29T19:37:04.769Z,24.52
2022-07-29T19:39:35.257Z,24.44
2022-07-29T19:42:03.474Z,24.39
2022-07-29T19:44:30.288Z,24.28
2022-07-29T19:46:57.293Z,24.27
2022-07-29T19:49:24.079Z,24.20
2022-07-29T19:51:50.624Z,24.12
2022-07-29T19:54:19.868Z,24.03
2022-07-29T19:56:47.391Z,23.95
2022-07-29T19:59:14.455Z,23.98
2022-07-29T20:01:41.243Z,23.93
2022-07-29T20:04:07.823Z,23.91
2022-07-29T20:06:34.448Z,23.78
2022-07-29T20:09:00.927Z,23.76
2022-07-29T20:11:29.664Z,23.66
2022-07-29T20:13:56.247Z,23.64
2022-07-29T20:16:22.794Z,23.66
2022-07-29T20:18:51.903Z,23.57
2022-07-29T20:21:18.433Z,23.55
2022-07-29T20:23:45.860Z,23.60
2022-07-29T20:26:12.719Z,23.54
2022-07-29T20:28:40.228Z,23.49
2022-07-29T20:31:06.839Z,23.42
2022-07-29T20:33:33.443Z,23.39
2022-07-29T20:35:59.960Z,23.50
2022-07-29T20:38:26.390Z,23.47
2022-07-29T20:40:55.614Z,23.47
2022-07-29T20:43:22.005Z,23.48
2022-07-29T20:45:48.829Z,23.44
2022-07-29T20:48:15.287Z,23.39
2022-07-29T20:50:42.776Z,23.41
2022-07-29T20:53:09.475Z,23.34
2022-07-29T20:55:35.916Z,23.30
2022-07-29T20:58:02.320Z,23.21
2022-07-29T21:00:29.755Z,23.12
2022-07-29T21:02:58.614Z,23.14
2022-07-29T21:05:25.212Z,23.01
2022-07-29T21:07:55.355Z,22.96
2022-07-29T21:10:24.268Z,23.10
2022-07-29T21:12:50.926Z,22.98
2022-07-29T21:15:20.526Z,22.96
2022-07-29T21:17:47.645Z,22.98
2022-07-29T21:20:18.756Z,22.98
2022-07-29T21:22:45.576Z,23.09
2022-07-29T21:25:12.174Z,22.95
2022-07-29T21:27:57.316Z,22.88
2022-07-29T21:30:23.793Z,22.83
2022-07-29T21:32:50.318Z,23.05
2022-07-29T21:35:35.957Z,22.91
2022-07-29T21:38:03.421Z,22.92
2022-07-29T21:40:30.399Z,22.80
2022-07-29T21:42:56.911Z,22.80
2022-07-29T21:45:25.167Z,22.77
2022-07-29T21:47:51.620Z,22.72
2022-07-29T21:50:18.302Z,22.65
2022-07-29T21:52:44.755Z,22.60
2022-07-29T21:55:11.754Z,22.60
2022-07-29T21:57:38.597Z,22.56
2022-07-29T22:00:06.536Z,22.51
2022-07-29T22:02:33.542Z,22.57
2022-07-29T22:05:00.019Z,22.47
2022-07-29T22:07:54.184Z,22.44
2022-07-29T22:10:13.257Z,22.37
2022-07-29T22:12:39.692Z,22.38
2022-07-29T22:15:06.613Z,22.34
2022-07-29T22:17:33.550Z,22.31
2022-07-29T22:20:00.368Z,22.26
2022-07-29T22:22:27.418Z,22.27
2022-07-29T22:24:53.992Z,22.33
2022-07-29T22:27:20.449Z,22.44
2022-07-29T22:29:48.507Z,22.36
2022-07-29T22:32:14.918Z,22.58
2022-07-29T22:34:41.381Z,22.63
2022-07-29T22:37:08.153Z,22.55
2022-07-29T22:39:35.307Z,22.47
2022-07-29T22:42:01.786Z,22.42
2022-07-29T22:44:28.222Z,22.54
2022-07-29T22:46:54.657Z,22.67
2022-07-29T22:49:21.148Z,22.65
2022-07-29T22:51:47.664Z,22.75
2022-07-29T22:54:14.124Z,22.74
2022-07-29T22:56:40.563Z,22.73
2022-07-29T22:59:07.755Z,22.66
2022-07-29T23:01:37.144Z,22.61
2022-07-29T23:06:31.167Z,22.64
2022-07-29T23:08:57.638Z,22.57
2022-07-29T23:11:24.097Z,22.47
2022-07-29T23:13:51.632Z,22.46
2022-07-29T23:16:26.379Z,22.43
2022-07-29T23:18:55.061Z,22.38
2022-07-29T23:21:22.334Z,22.36
2022-07-29T23:23:49.910Z,22.30
2022-07-29T23:26:17.497Z,22.29
2022-07-29T23:28:46.559Z,22.26
2022-07-29T23:31:14.481Z,22.34
2022-07-29T23:33:42.137Z,22.25
2022-07-29T23:36:09.884Z,22.22
2022-07-29T23:38:41.263Z,22.19
2022-07-29T23:41:09.909Z,22.28
2022-07-29T23:43:37.517Z,22.21
2022-07-29T23:46:04.436Z,22.25
2022-07-29T23:48:32.893Z,22.30
2022-07-29T23:51:01.044Z,22.23
2022-07-29T23:53:28.417Z,22.18
2022-07-29T23:55:55.846Z,22.13
2022-07-29T23:58:22.611Z,22.17
